Time;durP1;ratioP1;P1;durP2;ratioP2;P2;SDS_P1;SDS_P2;PMS_P1;PMS_P2;Temp;Humidity;BMP_temperature;BMP_pressure;BME280_temperature;BME280_humidity;BME280_pressure;Samples;Min_cycle;Max_cycle;Signal;HPM_P1;HPM_P2
2024/01/04 00:00:31;;;;;;;15.85;7.10;;;;;;;-145.63;100.00;61273.97;5082854;28;20016;-68
2024/01/04 00:02:57;;;;;;;10.98;5.53;;;;;;;-145.63;100.00;61273.97;5072101;28;20028;-68
2024/01/04 00:05:23;;;;;;;13.40;5.43;;;;;;;-145.63;100.00;61273.97;5073337;28;20024;-67
2024/01/04 00:07:49;;;;;;;14.60;5.97;;;;;;;-145.63;100.00;61273.97;5085055;28;20032;-68
2024/01/04 00:10:15;;;;;;;13.80;5.38;;;;;;;-145.63;100.00;61273.97;5085452;28;20031;-69
2024/01/04 00:12:41;;;;;;;13.32;6.05;;;;;;;-145.63;100.00;61273.97;5081668;28;20098;-69
2024/01/04 00:15:08;;;;;;;13.77;5.30;;;;;;;-145.63;100.00;61273.97;5053026;28;20048;-68
2024/01/04 00:17:33;;;;;;;11.15;5.20;;;;;;;-145.63;100.00;61273.97;5074832;28;20026;-67
2024/01/04 00:20:00;;;;;;;9.30;4.85;;;;;;;-145.63;100.00;61273.97;5080059;28;20024;-66
2024/01/04 00:22:26;;;;;;;14.10;5.22;;;;;;;-145.63;100.00;61273.97;5064857;28;20052;-67
2024/01/04 00:24:51;;;;;;;13.20;5.10;;;;;;;-145.63;100.00;61273.97;5084912;28;20044;-67
2024/01/04 00:27:17;;;;;;;9.32;4.60;;;;;;;-145.63;100.00;61273.97;5051102;28;20341;-69
2024/01/04 00:29:43;;;;;;;12.88;5.30;;;;;;;-145.63;100.00;61273.97;5075367;28;20047;-68
2024/01/04 00:32:09;;;;;;;10.27;5.05;;;;;;;-145.63;100.00;61273.97;5060305;28;20066;-67
2024/01/04 00:34:35;;;;;;;13.77;5.07;;;;;;;-145.63;100.00;61273.97;5064016;28;20021;-68
2024/01/04 00:37:03;;;;;;;8.98;4.50;;;;;;;-145.63;100.00;61273.97;5064266;28;20068;-68
2024/01/04 00:39:29;;;;;;;14.50;4.95;;;;;;;-145.63;100.00;61273.97;5064321;28;20032;-68
2024/01/04 00:41:56;;;;;;;11.48;4.93;;;;;;;-145.63;100.00;61273.97;5051732;28;20128;-67
2024/01/04 00:44:21;;;;;;;6.60;4.03;;;;;;;-145.63;100.00;61273.97;5052239;28;20062;-68
2024/01/04 00:46:47;;;;;;;13.00;5.15;;;;;;;-145.63;100.00;61273.97;5060838;28;20025;-68
2024/01/04 00:49:13;;;;;;;10.75;4.85;;;;;;;-145.63;100.00;61273.97;5048352;28;20055;-68
2024/01/04 00:51:38;;;;;;;11.65;4.53;;;;;;;-145.63;100.00;61273.97;5082160;28;20017;-69
2024/01/04 00:54:04;;;;;;;13.13;5.22;;;;;;;-145.63;100.00;61273.97;5070192;28;20021;-68
2024/01/04 00:56:34;;;;;;;10.75;4.70;;;;;;;-145.63;100.00;61273.97;5054964;28;20039;-69
2024/01/04 00:59:00;;;;;;;10.13;4.55;;;;;;;-145.63;100.00;61273.97;5048739;28;20017;-67
2024/01/04 01:01:26;;;;;;;10.38;5.25;;;;;;;-145.63;100.00;61273.97;5063583;28;20036;-67
2024/01/04 01:03:52;;;;;;;10.77;4.95;;;;;;;-145.63;100.00;61273.97;5026264;28;20029;-68
2024/01/04 01:06:18;;;;;;;11.05;5.13;;;;;;;-145.63;100.00;61273.97;5059152;28;20032;-67
2024/01/04 01:08:43;;;;;;;8.02;4.93;;;;;;;-145.63;100.00;61273.97;5063250;28;20020;-67
2024/01/04 01:11:09;;;;;;;12.85;5.50;;;;;;;-145.63;100.00;61273.97;5043417;28;20086;-67
2024/01/04 01:13:35;;;;;;;11.02;4.57;;;;;;;-145.63;100.00;61273.97;5063461;28;20017;-67
2024/01/04 01:16:01;;;;;;;10.25;4.15;;;;;;;-145.63;100.00;61273.97;5063701;28;20063;-67
2024/01/04 01:18:27;;;;;;;7.60;4.65;;;;;;;-145.63;100.00;61273.97;5063322;28;20209;-66
2024/01/04 01:20:54;;;;;;;8.80;4.45;;;;;;;-145.63;100.00;61273.97;5051465;28;20052;-69
2024/01/04 01:23:19;;;;;;;10.45;4.22;;;;;;;-145.63;100.00;61273.97;5050702;28;20017;-68
2024/01/04 01:25:45;;;;;;;8.88;4.65;;;;;;;-145.63;100.00;61273.97;5065706;28;20021;-68
2024/01/04 01:28:11;;;;;;;7.57;4.30;;;;;;;-145.63;100.00;61273.97;5083539;28;20088;-68
2024/01/04 01:30:37;;;;;;;8.30;4.30;;;;;;;-145.63;100.00;61273.97;5065205;28;20353;-68
2024/01/04 01:33:03;;;;;;;7.57;4.95;;;;;;;-145.63;100.00;61273.97;5049607;28;20084;-67
2024/01/04 01:35:28;;;;;;;11.48;5.22;;;;;;;-145.63;100.00;61273.97;5051261;28;20249;-67
2024/01/04 01:37:54;;;;;;;11.43;4.70;;;;;;;-145.63;100.00;61273.97;5045513;28;20028;-67
2024/01/04 01:40:21;;;;;;;12.20;5.60;;;;;;;-145.63;100.00;61273.97;5063217;28;20243;-68
2024/01/04 01:42:47;;;;;;;10.20;5.13;;;;;;;-145.63;100.00;61273.97;5062939;28;20075;-67
2024/01/04 01:45:13;;;;;;;9.32;5.03;;;;;;;-145.63;100.00;61273.97;5048637;28;20041;-67
2024/01/04 01:47:41;;;;;;;13.18;5.70;;;;;;;-145.63;100.00;61273.97;5052559;28;20204;-68
2024/01/04 01:50:07;;;;;;;11.43;5.07;;;;;;;-145.63;100.00;61273.97;5053635;28;20313;-67
2024/01/04 01:52:36;;;;;;;14.10;5.35;;;;;;;-145.63;100.00;61273.97;5064597;28;20070;-66
2024/01/04 01:55:03;;;;;;;15.23;5.05;;;;;;;-145.63;100.00;61273.97;5063272;28;20080;-67
2024/01/04 01:57:33;;;;;;;13.35;5.88;;;;;;;-145.63;100.00;61273.97;5046545;28;20369;-67
2024/01/04 01:59:59;;;;;;;10.13;4.55;;;;;;;-145.63;100.00;61273.97;5037705;28;20236;-69
2024/01/04 02:02:26;;;;;;;7.93;4.70;;;;;;;-145.63;100.00;61273.97;5055186;28;20107;-68
2024/01/04 02:04:53;;;;;;;11.00;4.68;;;;;;;-145.63;100.00;61273.97;5028507;28;20021;-67
2024/01/04 02:07:18;;;;;;;9.38;4.43;;;;;;;-145.63;100.00;61273.97;5062931;28;20028;-67
2024/01/04 02:09:45;;;;;;;10.23;4.28;;;;;;;-145.63;100.00;61273.97;5061486;28;20329;-67
2024/01/04 02:12:12;;;;;;;12.27;5.00;;;;;;;-145.63;100.00;61273.97;5039576;28;20048;-66
2024/01/04 02:14:38;;;;;;;8.88;5.18;;;;;;;-145.63;100.00;61273.97;5051938;28;20055;-68
2024/01/04 02:17:04;;;;;;;9.63;5.07;;;;;;;-145.63;100.00;61273.97;5057847;28;20029;-68
2024/01/04 02:19:30;;;;;;;13.95;5.38;;;;;;;-145.63;100.00;61273.97;5042590;28;20205;-67
2024/01/04 02:21:56;;;;;;;9.65;5.20;;;;;;;-145.63;100.00;61273.97;5042626;28;20033;-67
2024/01/04 02:24:22;;;;;;;9.40;5.68;;;;;;;-145.63;100.00;61273.97;5057867;28;20017;-69
2024/01/04 02:26:47;;;;;;;11.23;5.53;;;;;;;-145.63;100.00;61273.97;5062269;28;20028;-67
2024/01/04 02:29:13;;;;;;;13.07;5.72;;;;;;;-145.63;100.00;61273.97;5056788;28;20017;-68
2024/01/04 02:31:38;;;;;;;10.82;5.00;;;;;;;-145.63;100.00;61273.97;5043572;28;20084;-69
2024/01/04 02:34:04;;;;;;;15.85;6.32;;;;;;;-145.63;100.00;61273.97;5062926;28;20032;-67
2024/01/04 02:36:31;;;;;;;12.25;4.80;;;;;;;-145.63;100.00;61273.97;5091886;28;20032;-67
2024/01/04 02:38:58;;;;;;;10.55;4.97;;;;;;;-145.63;100.00;61273.97;5073047;28;20052;-68
2024/01/04 02:41:25;;;;;;;10.27;4.32;;;;;;;-145.63;100.00;61273.97;5075419;28;20025;-69
2024/01/04 02:43:50;;;;;;;9.88;4.32;;;;;;;-145.63;100.00;61273.97;5064679;28;20359;-68
2024/01/04 02:46:16;;;;;;;8.73;5.07;;;;;;;-145.63;100.00;61273.97;5084248;28;20048;-68
2024/01/04 02:48:41;;;;;;;12.75;5.35;;;;;;;-145.63;100.00;61273.97;5067992;28;20056;-67
2024/01/04 02:51:08;;;;;;;11.75;4.85;;;;;;;-145.63;100.00;61273.97;5092259;28;20016;-66
2024/01/04 02:53:33;;;;;;;12.40;5.05;;;;;;;-145.63;100.00;61273.97;5089539;28;20033;-67
2024/01/04 02:55:59;;;;;;;10.88;5.78;;;;;;;-145.63;100.00;61273.97;5066226;28;20114;-67
2024/01/04 02:58:26;;;;;;;8.63;4.53;;;;;;;-145.63;100.00;61273.97;5066489;28;20048;-68
2024/01/04 03:00:51;;;;;;;10.32;5.03;;;;;;;-145.63;100.00;61273.97;5066076;28;20032;-67
2024/01/04 03:03:17;;;;;;;10.38;4.75;;;;;;;-145.63;100.00;61273.97;5080073;28;20020;-67
2024/01/04 03:05:43;;;;;;;6.70;3.85;;;;;;;-145.63;100.00;61273.97;5095589;28;20085;-67
2024/01/04 03:08:08;;;;;;;10.25;4.47;;;;;;;-145.63;100.00;61273.97;5086601;28;20543;-69
2024/01/04 03:10:35;;;;;;;9.40;4.47;;;;;;;-145.63;100.00;61273.97;5064455;28;20170;-68
2024/01/04 03:13:03;;;;;;;15.18;5.18;;;;;;;-145.63;100.00;61273.97;5085926;28;20280;-66
2024/01/04 03:15:28;;;;;;;11.00;4.90;;;;;;;-145.63;100.00;61273.97;5072258;28;20028;-67
2024/01/04 03:17:54;;;;;;;10.80;5.10;;;;;;;-145.63;100.00;61273.97;5086006;28;20012;-67
2024/01/04 03:20:20;;;;;;;9.10;4.35;;;;;;;-145.63;100.00;61273.97;5079440;28;20024;-66
2024/01/04 03:22:45;;;;;;;10.50;5.53;;;;;;;-145.63;100.00;61273.97;5066711;28;20368;-67
2024/01/04 03:25:12;;;;;;;9.77;4.53;;;;;;;-145.63;100.00;61273.97;5085749;28;20020;-67
2024/01/04 03:27:38;;;;;;;9.30;4.38;;;;;;;-145.63;100.00;61273.97;5064316;28;20052;-66
2024/01/04 03:30:06;;;;;;;13.35;4.88;;;;;;;-145.63;100.00;61273.97;5077787;28;20016;-69
2024/01/04 03:32:31;;;;;;;10.70;4.68;;;;;;;-145.63;100.00;61273.97;5059589;28;20506;-66
2024/01/04 03:34:57;;;;;;;13.02;5.03;;;;;;;-145.63;100.00;61273.97;5068701;28;20031;-66
2024/01/04 03:37:23;;;;;;;13.93;5.35;;;;;;;-145.63;100.00;61273.97;5067655;28;20040;-68
2024/01/04 03:39:49;;;;;;;9.45;5.05;;;;;;;-145.63;100.00;61273.97;5085423;28;20020;-67
2024/01/04 03:42:15;;;;;;;12.50;7.53;;;;;;;-145.63;100.00;61273.97;5071581;28;20031;-68
2024/01/04 03:44:42;;;;;;;11.65;5.63;;;;;;;-145.63;100.00;61273.97;5073978;28;20291;-66
2024/01/04 03:47:08;;;;;;;14.48;5.68;;;;;;;-145.63;100.00;61273.97;5079835;28;20016;-67
2024/01/04 03:49:34;;;;;;;12.43;6.00;;;;;;;-145.63;100.00;61273.97;5072256;28;20024;-67
2024/01/04 03:52:00;;;;;;;11.07;6.15;;;;;;;-145.63;100.00;61273.97;5063939;28;20075;-67
2024/01/04 03:54:26;;;;;;;10.13;5.63;;;;;;;-145.63;100.00;61273.97;5079597;28;20305;-67
2024/01/04 03:56:52;;;;;;;13.02;5.80;;;;;;;-145.63;100.00;61273.97;5074083;28;20020;-67
2024/01/04 03:59:17;;;;;;;16.50;5.80;;;;;;;-145.63;100.00;61273.97;5070299;28;20021;-66
2024/01/04 04:01:47;;;;;;;10.82;5.50;;;;;;;-145.63;100.00;61273.97;5066037;28;20036;-68
2024/01/04 04:04:13;;;;;;;11.77;5.50;;;;;;;-145.63;100.00;61273.97;5064979;28;20021;-67
2024/01/04 04:06:39;;;;;;;12.32;5.18;;;;;;;-145.63;100.00;61273.97;5081036;28;20299;-67
2024/01/04 04:09:07;;;;;;;11.40;5.28;;;;;;;-145.63;100.00;61273.97;5084657;28;20039;-68
2024/01/04 04:11:33;;;;;;;14.00;5.03;;;;;;;-145.63;100.00;61273.97;5066006;28;20024;-67
2024/01/04 04:14:00;;;;;;;14.32;5.30;;;;;;;-145.63;100.00;61273.97;5081970;28;20048;-67
2024/01/04 04:16:25;;;;;;;10.70;5.07;;;;;;;-145.63;100.00;61273.97;5047114;28;20024;-67
2024/01/04 04:18:51;;;;;;;8.40;4.70;;;;;;;-145.63;100.00;61273.97;5082935;28;20021;-67
2024/01/04 04:21:24;;;;;;;13.77;5.53;;;;;;;-145.63;100.00;61273.97;5071106;28;20025;-67
2024/01/04 04:23:50;;;;;;;11.63;5.65;;;;;;;-145.63;100.00;61273.97;5074760;28;20056;-66
2024/01/04 04:26:20;;;;;;;11.35;4.97;;;;;;;-145.63;100.00;61273.97;5089724;28;20276;-67
2024/01/04 04:28:47;;;;;;;10.55;5.20;;;;;;;-145.63;100.00;61273.97;5104543;28;20054;-67
2024/01/04 04:31:13;;;;;;;7.70;4.50;;;;;;;-145.63;100.00;61273.97;5104719;28;20020;-67
2024/01/04 04:33:40;;;;;;;8.38;4.03;;;;;;;-145.63;100.00;61273.97;5086443;28;20020;-67
2024/01/04 04:36:06;;;;;;;7.50;4.43;;;;;;;-145.63;100.00;61273.97;5091243;28;20048;-67
2024/01/04 04:38:34;;;;;;;10.52;5.25;;;;;;;-145.63;100.00;61273.97;5091265;28;20036;-66
2024/01/04 04:41:00;;;;;;;10.98;4.53;;;;;;;-145.63;100.00;61273.97;5101753;28;20149;-67
2024/01/04 04:43:26;;;;;;;7.30;3.97;;;;;;;-145.63;100.00;61273.97;5084386;28;20019;-66
2024/01/04 04:45:52;;;;;;;10.30;5.35;;;;;;;-145.63;100.00;61273.97;5065617;28;20029;-67
2024/01/04 04:48:17;;;;;;;15.05;5.53;;;;;;;-145.63;100.00;61273.97;5077303;28;20024;-67
2024/01/04 04:50:43;;;;;;;11.80;4.45;;;;;;;-145.63;100.00;61273.97;5083634;28;20028;-66
2024/01/04 04:53:09;;;;;;;11.93;4.70;;;;;;;-145.63;100.00;61273.97;5062416;28;20017;-67
2024/01/04 04:55:34;;;;;;;10.73;4.53;;;;;;;-145.63;100.00;61273.97;5064028;28;20072;-66
2024/01/04 04:58:00;;;;;;;10.15;4.35;;;;;;;-145.63;100.00;61273.97;5083488;28;20451;-68
2024/01/04 05:00:26;;;;;;;8.13;3.97;;;;;;;-145.63;100.00;61273.97;5083847;28;20029;-67
2024/01/04 05:02:51;;;;;;;6.68;3.72;;;;;;;-145.63;100.00;61273.97;5083648;28;20032;-68
2024/01/04 05:05:17;;;;;;;9.02;4.95;;;;;;;-145.63;100.00;61273.97;5078952;28;20028;-67
2024/01/04 05:07:42;;;;;;;8.63;4.68;;;;;;;-145.63;100.00;61273.97;5073728;28;20083;-68
2024/01/04 05:10:08;;;;;;;11.30;4.95;;;;;;;-145.63;100.00;61273.97;5083925;28;20212;-68
2024/01/04 05:12:34;;;;;;;12.80;4.80;;;;;;;-145.63;100.00;61273.97;5068216;28;20111;-68
2024/01/04 05:15:00;;;;;;;7.45;4.13;;;;;;;-145.63;100.00;61273.97;5074540;28;20020;-67
2024/01/04 05:17:25;;;;;;;12.00;5.40;;;;;;;-145.63;100.00;61273.97;5083626;28;20012;-67
2024/01/04 05:19:51;;;;;;;10.85;5.47;;;;;;;-145.63;100.00;61273.97;5082138;28;20020;-69
2024/01/04 05:22:18;;;;;;;11.23;5.00;;;;;;;-145.63;100.00;61273.97;5046079;28;20024;-67
2024/01/04 05:24:43;;;;;;;14.10;5.25;;;;;;;-145.63;100.00;61273.97;5079517;28;20019;-67
2024/01/04 05:27:09;;;;;;;11.73;6.15;;;;;;;-145.63;100.00;61273.97;5071718;28;20020;-68
2024/01/04 05:29:34;;;;;;;13.55;5.47;;;;;;;-145.63;100.00;61273.97;5070264;28;20088;-67
2024/01/04 05:32:01;;;;;;;10.63;4.70;;;;;;;-145.63;100.00;61273.97;5081049;28;20278;-69
2024/01/04 05:34:29;;;;;;;10.10;5.00;;;;;;;-145.63;100.00;61273.97;5063170;28;20017;-67
2024/01/04 05:36:54;;;;;;;13.18;5.30;;;;;;;-145.63;100.00;61273.97;5081134;28;20032;-66
2024/01/04 05:39:20;;;;;;;11.75;4.60;;;;;;;-145.63;100.00;61273.97;5052311;28;20067;-69
2024/01/04 05:41:46;;;;;;;10.00;4.70;;;;;;;-145.63;100.00;61273.97;5071744;28;20028;-67
2024/01/04 05:44:11;;;;;;;8.07;4.53;;;;;;;-145.63;100.00;61273.97;5079331;28;20032;-67
2024/01/04 05:46:37;;;;;;;9.82;4.20;;;;;;;-145.63;100.00;61273.97;5063063;28;20048;-67
2024/01/04 05:49:03;;;;;;;11.25;4.18;;;;;;;-145.63;100.00;61273.97;5080245;28;20024;-69
2024/01/04 05:51:28;;;;;;;8.30;4.25;;;;;;;-145.63;100.00;61273.97;5097068;28;20038;-67
2024/01/04 05:53:54;;;;;;;11.95;4.97;;;;;;;-145.63;100.00;61273.97;5093530;28;20304;-67
2024/01/04 05:56:19;;;;;;;8.00;4.95;;;;;;;-145.63;100.00;61273.97;5078385;28;20029;-67
2024/01/04 05:58:45;;;;;;;10.52;5.38;;;;;;;-145.63;100.00;61273.97;5044808;28;20033;-67
2024/01/04 06:01:11;;;;;;;14.02;4.82;;;;;;;-145.63;100.00;61273.97;5064778;28;20028;-67
2024/01/04 06:03:37;;;;;;;8.80;4.82;;;;;;;-145.63;100.00;61273.97;5067261;28;20317;-68
2024/01/04 06:06:03;;;;;;;11.13;5.53;;;;;;;-145.63;100.00;61273.97;5073551;28;20020;-67
2024/01/04 06:08:28;;;;;;;15.25;5.90;;;;;;;-145.63;100.00;61273.97;5070784;28;20032;-67
2024/01/04 06:10:54;;;;;;;11.70;5.25;;;;;;;-145.63;100.00;61273.97;5099815;28;20027;-67
2024/01/04 06:13:25;;;;;;;11.60;4.72;;;;;;;-145.63;100.00;61273.97;5062605;28;20036;-66
2024/01/04 06:15:52;;;;;;;8.93;4.30;;;;;;;-145.63;100.00;61273.97;5097285;28;20094;-68
2024/01/04 06:18:18;;;;;;;8.30;4.13;;;;;;;-145.63;100.00;61273.97;5072120;28;20221;-68
2024/01/04 06:20:44;;;;;;;6.15;3.85;;;;;;;-145.63;100.00;61273.97;5056264;28;20028;-67
2024/01/04 06:23:09;;;;;;;7.60;3.95;;;;;;;-145.63;100.00;61273.97;5065364;28;20050;-68
2024/01/04 06:25:35;;;;;;;7.47;4.53;;;;;;;-145.63;100.00;61273.97;5082537;28;20075;-68
2024/01/04 06:28:00;;;;;;;9.88;4.40;;;;;;;-145.63;100.00;61273.97;5046391;28;20175;-67
2024/01/04 06:30:26;;;;;;;11.63;5.00;;;;;;;-145.63;100.00;61273.97;5075973;28;20034;-67
2024/01/04 06:32:52;;;;;;;10.60;4.93;;;;;;;-145.63;100.00;61273.97;5073229;28;20270;-67
2024/01/04 06:35:18;;;;;;;10.70;4.75;;;;;;;-145.63;100.00;61273.97;5065017;28;20020;-68
2024/01/04 06:37:44;;;;;;;10.38;5.03;;;;;;;-145.63;100.00;61273.97;5082462;28;20031;-66
2024/01/04 06:40:10;;;;;;;11.85;5.20;;;;;;;-145.63;100.00;61273.97;5062638;28;20024;-68
2024/01/04 06:42:36;;;;;;;15.95;7.18;;;;;;;-145.63;100.00;61273.97;5075882;28;20364;-68
2024/01/04 06:45:04;;;;;;;9.90;5.32;;;;;;;-145.63;100.00;61273.97;5054112;28;20250;-68
2024/01/04 06:47:30;;;;;;;8.90;4.75;;;;;;;-145.63;100.00;61273.97;5067806;28;20087;-69
2024/01/04 06:49:56;;;;;;;11.68;4.78;;;;;;;-145.63;100.00;61273.97;5082271;28;20033;-67
2024/01/04 06:52:22;;;;;;;9.18;4.53;;;;;;;-145.63;100.00;61273.97;5047953;28;20024;-68
2024/01/04 06:54:47;;;;;;;21.33;8.32;;;;;;;-145.63;100.00;61273.97;5098577;28;20027;-67
2024/01/04 06:57:13;;;;;;;9.68;4.63;;;;;;;-145.63;100.00;61273.97;5091008;28;20044;-69
2024/01/04 06:59:39;;;;;;;27.50;6.75;;;;;;;-145.63;100.00;61273.97;5075431;28;20031;-68
2024/01/04 07:02:05;;;;;;;7.53;2.72;;;;;;;-145.63;100.00;61273.97;5046568;28;20221;-67
2024/01/04 07:04:30;;;;;;;9.10;4.72;;;;;;;-145.63;100.00;61273.97;5082257;28;20224;-68
2024/01/04 07:06:56;;;;;;;10.93;5.05;;;;;;;-145.63;100.00;61273.97;5069558;28;20016;-68
2024/01/04 07:09:22;;;;;;;7.53;5.05;;;;;;;-145.63;100.00;61273.97;5082403;28;20286;-68
2024/01/04 07:11:48;;;;;;;11.80;5.13;;;;;;;-145.63;100.00;61273.97;5081866;28;20020;-68
2024/01/04 07:14:13;;;;;;;9.32;4.78;;;;;;;-145.63;100.00;61273.97;5079219;28;20021;-69
2024/01/04 07:16:44;;;;;;;10.48;4.32;;;;;;;-145.63;100.00;61273.97;5062184;28;20294;-67
2024/01/04 07:19:10;;;;;;;10.75;5.43;;;;;;;-145.63;100.00;61273.97;5081641;28;20092;-68
2024/01/04 07:21:35;;;;;;;12.13;4.97;;;;;;;-145.63;100.00;61273.97;5067773;28;20025;-66
2024/01/04 07:24:01;;;;;;;8.73;3.97;;;;;;;-145.63;100.00;61273.97;5072129;28;20039;-69
2024/01/04 07:26:27;;;;;;;11.55;4.13;;;;;;;-145.63;100.00;61273.97;5076893;28;20017;-69
2024/01/04 07:28:53;;;;;;;11.98;5.15;;;;;;;-145.63;100.00;61273.97;5062025;28;20020;-69
2024/01/04 07:31:19;;;;;;;7.65;3.83;;;;;;;-145.63;100.00;61273.97;5083340;28;20029;-68
2024/01/04 07:33:44;;;;;;;9.68;4.60;;;;;;;-145.63;100.00;61273.97;5052230;28;20025;-66
2024/01/04 07:36:10;;;;;;;8.32;4.07;;;;;;;-145.63;100.00;61273.97;5076209;28;20264;-68
2024/01/04 07:38:35;;;;;;;10.68;3.78;;;;;;;-145.63;100.00;61273.97;5061388;28;20033;-67
2024/01/04 07:41:03;;;;;;;8.73;4.45;;;;;;;-145.63;100.00;61273.97;5066568;28;20206;-66
2024/01/04 07:43:29;;;;;;;6.45;3.60;;;;;;;-145.63;100.00;61273.97;5085309;28;20043;-67
2024/01/04 07:45:55;;;;;;;10.35;6.32;;;;;;;-145.63;100.00;61273.97;5068612;28;20021;-67
2024/01/04 07:48:21;;;;;;;9.25;3.70;;;;;;;-145.63;100.00;61273.97;5077197;28;20027;-67
2024/01/04 07:50:47;;;;;;;7.43;3.22;;;;;;;-145.63;100.00;61273.97;5085282;28;20120;-68
2024/01/04 07:53:13;;;;;;;8.70;3.92;;;;;;;-145.63;100.00;61273.97;5087979;28;20032;-67
2024/01/04 07:55:39;;;;;;;7.13;3.17;;;;;;;-145.63;100.00;61273.97;5105677;28;20297;-69
2024/01/04 07:58:05;;;;;;;8.75;4.50;;;;;;;-145.63;100.00;61273.97;5105824;28;20208;-68
2024/01/04 08:00:31;;;;;;;8.95;4.47;;;;;;;-145.63;100.00;61273.97;5091355;28;20059;-67
2024/01/04 08:02:57;;;;;;;10.23;4.38;;;;;;;-145.63;100.00;61273.97;5076362;28;20029;-67
2024/01/04 08:05:22;;;;;;;6.10;4.15;;;;;;;-145.63;100.00;61273.97;5069108;28;20034;-66
2024/01/04 08:07:48;;;;;;;9.45;4.20;;;;;;;-145.63;100.00;61273.97;5085138;28;20031;-66
2024/01/04 08:10:14;;;;;;;10.18;4.20;;;;;;;-145.63;100.00;61273.97;5085159;28;20048;-68
2024/01/04 08:12:40;;;;;;;12.23;4.13;;;;;;;-145.63;100.00;61273.97;5084750;28;20032;-68
2024/01/04 08:15:08;;;;;;;11.30;4.57;;;;;;;-145.63;100.00;61273.97;5057378;28;20024;-67
2024/01/04 08:17:34;;;;;;;7.20;3.75;;;;;;;-145.63;100.00;61273.97;5070344;28;20021;-69
2024/01/04 08:19:59;;;;;;;7.50;4.82;;;;;;;-145.63;100.00;61273.97;5084331;28;20280;-67
2024/01/04 08:22:25;;;;;;;6.78;4.00;;;;;;;-145.63;100.00;61273.97;5047652;28;20048;-67
2024/01/04 08:24:51;;;;;;;11.23;5.20;;;;;;;-145.63;100.00;61273.97;5080993;28;20198;-69
2024/01/04 08:27:20;;;;;;;9.63;4.30;;;;;;;-145.63;100.00;61273.97;5073768;28;20027;-67
2024/01/04 08:29:48;;;;;;;10.45;4.78;;;;;;;-145.63;100.00;61273.97;5071673;28;20094;-68
2024/01/04 08:32:17;;;;;;;12.20;5.43;;;;;;;-145.63;100.00;61273.97;5082175;28;20025;-68
2024/01/04 08:34:43;;;;;;;13.55;5.70;;;;;;;-145.63;100.00;61273.97;5063505;28;20023;-69
2024/01/04 08:37:08;;;;;;;16.05;5.88;;;;;;;-145.63;100.00;61273.97;5083106;28;20037;-69
2024/01/04 08:39:34;;;;;;;11.80;5.38;;;;;;;-145.63;100.00;61273.97;5070446;28;20032;-68
2024/01/04 08:42:00;;;;;;;14.88;5.68;;;;;;;-145.63;100.00;61273.97;5072274;28;20056;-68
2024/01/04 08:44:26;;;;;;;12.35;5.53;;;;;;;-145.63;100.00;61273.97;5079696;28;20013;-68
2024/01/04 08:46:53;;;;;;;9.98;5.72;;;;;;;-145.63;100.00;61273.97;5046579;28;20092;-69
2024/01/04 08:49:19;;;;;;;12.48;5.25;;;;;;;-145.63;100.00;61273.97;5083422;28;20016;-68
2024/01/04 08:51:44;;;;;;;10.07;4.55;;;;;;;-145.63;100.00;61273.97;5083618;28;20026;-69
2024/01/04 08:54:10;;;;;;;8.77;5.38;;;;;;;-145.63;100.00;61273.97;5074026;28;20063;-68
2024/01/04 08:56:36;;;;;;;9.98;5.28;;;;;;;-145.63;100.00;61273.97;5048014;28;20029;-67
2024/01/04 08:59:03;;;;;;;19.88;5.95;;;;;;;-145.63;100.00;61273.97;5064288;28;20088;-69
2024/01/04 09:01:29;;;;;;;11.43;6.53;;;;;;;-145.63;100.00;61273.97;5046261;28;20294;-67
2024/01/04 09:03:55;;;;;;;12.70;5.75;;;;;;;-145.63;100.00;61273.97;5062384;28;20114;-69
2024/01/04 09:06:21;;;;;;;10.30;5.97;;;;;;;-145.63;100.00;61273.97;5072182;28;20075;-68
2024/01/04 09:08:48;;;;;;;13.77;5.30;;;;;;;-145.63;100.00;61273.97;5083491;28;20020;-68
2024/01/04 09:11:16;;;;;;;10.65;6.07;;;;;;;-145.63;100.00;61273.97;5083597;28;20013;-68
2024/01/04 09:13:44;;;;;;;12.85;6.53;;;;;;;-145.63;100.00;61273.97;5083507;28;20021;-67
2024/01/04 09:16:10;;;;;;;12.85;7.10;;;;;;;-145.63;100.00;61273.97;5065504;28;20029;-68
2024/01/04 09:18:36;;;;;;;11.32;6.05;;;;;;;-145.63;100.00;61273.97;5076990;28;20175;-67
2024/01/04 09:21:01;;;;;;;12.18;6.45;;;;;;;-145.63;100.00;61273.97;5075004;28;20021;-69
2024/01/04 09:23:27;;;;;;;13.35;6.15;;;;;;;-145.63;100.00;61273.97;5067109;28;20015;-69
2024/01/04 09:25:53;;;;;;;10.45;6.28;;;;;;;-145.63;100.00;61273.97;5083308;28;20080;-67
2024/01/04 09:28:18;;;;;;;11.38;6.72;;;;;;;-145.63;100.00;61273.97;5064021;28;20017;-68
2024/01/04 09:30:45;;;;;;;12.52;7.03;;;;;;;-145.63;100.00;61273.97;5076981;28;20293;-68
2024/01/04 09:33:11;;;;;;;13.63;8.77;;;;;;;-145.63;100.00;61273.97;5073375;28;20021;-69
2024/01/04 09:35:37;;;;;;;16.77;11.48;;;;;;;-145.63;100.00;61273.97;5046939;28;20041;-68
2024/01/04 09:38:03;;;;;;;16.08;10.20;;;;;;;-145.63;100.00;61273.97;5062572;28;20056;-68
2024/01/04 09:40:29;;;;;;;15.20;6.75;;;;;;;-145.63;100.00;61273.97;5043014;28;20029;-68
2024/01/04 09:42:55;;;;;;;11.48;6.45;;;;;;;-145.63;100.00;61273.97;5058379;28;20028;-69
2024/01/04 09:45:22;;;;;;;11.80;6.75;;;;;;;-145.63;100.00;61273.97;5051395;28;20028;-69
2024/01/04 09:47:53;;;;;;;13.98;7.22;;;;;;;-145.63;100.00;61273.97;5049365;28;20257;-67
2024/01/04 09:50:21;;;;;;;11.77;6.75;;;;;;;-145.63;100.00;61273.97;5065142;28;20050;-69
2024/01/04 09:52:56;;;;;;;13.38;6.85;;;;;;;-145.63;100.00;61273.97;5065162;28;20035;-68
2024/01/04 09:55:23;;;;;;;16.33;8.25;;;;;;;-145.63;100.00;61273.97;5061961;28;20231;-68
2024/01/04 09:57:49;;;;;;;10.45;6.78;;;;;;;-145.63;100.00;61273.97;5030281;28;20025;-69
2024/01/04 10:00:15;;;;;;;10.32;6.03;;;;;;;-145.63;100.00;61273.97;5035139;28;20329;-68
2024/01/04 10:02:45;;;;;;;10.13;6.53;;;;;;;-145.63;100.00;61273.97;5057152;28;20021;-70
2024/01/04 10:05:15;;;;;;;11.85;6.13;;;;;;;-145.63;100.00;61273.97;5043748;28;20021;-69
2024/01/04 10:08:25;;;;;;;11.48;6.32;;;;;;;-145.63;100.00;61273.97;5062730;28;20066;-69
2024/01/04 10:10:55;;;;;;;9.80;6.30;;;;;;;-145.63;100.00;61273.97;5038835;28;20142;-68
2024/01/04 10:13:21;;;;;;;10.23;6.43;;;;;;;-145.63;100.00;61273.97;5062568;28;20028;-69
2024/01/04 10:15:49;;;;;;;14.60;6.28;;;;;;;-145.63;100.00;61273.97;5076978;28;20107;-68
2024/01/04 10:18:17;;;;;;;11.52;6.32;;;;;;;-145.63;100.00;61273.97;5072763;28;20071;-69
2024/01/04 10:20:59;;;;;;;11.93;6.38;;;;;;;-145.63;100.00;61273.97;5056768;28;20029;-68
2024/01/04 10:23:25;;;;;;;10.88;5.85;;;;;;;-145.63;100.00;61273.97;5048603;28;20020;-68
2024/01/04 10:25:51;;;;;;;12.70;6.43;;;;;;;-145.63;100.00;61273.97;5082512;28;20331;-68
2024/01/04 10:28:19;;;;;;;22.33;6.78;;;;;;;-145.63;100.00;61273.97;5063893;28;20024;-70
2024/01/04 10:30:55;;;;;;;13.02;6.40;;;;;;;-145.63;100.00;61273.97;5048379;28;20225;-68
2024/01/04 10:33:20;;;;;;;11.88;6.70;;;;;;;-145.63;100.00;61273.97;5052998;28;20290;-70
2024/01/04 10:35:46;;;;;;;12.48;6.75;;;;;;;-145.63;100.00;61273.97;5062769;28;20044;-68
2024/01/04 10:38:13;;;;;;;10.55;6.43;;;;;;;-145.63;100.00;61273.97;5065233;28;20191;-68
2024/01/04 10:40:38;;;;;;;11.45;6.45;;;;;;;-145.63;100.00;61273.97;5102984;28;20099;-68
2024/01/04 10:43:04;;;;;;;12.98;6.95;;;;;;;-145.63;100.00;61273.97;5085935;28;20055;-68
2024/01/04 10:45:30;;;;;;;11.65;6.43;;;;;;;-145.63;100.00;61273.97;5070415;28;20024;-70
2024/01/04 10:47:56;;;;;;;12.30;6.80;;;;;;;-145.63;100.00;61273.97;5069851;28;20059;-69
2024/01/04 10:50:25;;;;;;;12.13;6.68;;;;;;;-145.63;100.00;61273.97;5084496;28;20044;-68
2024/01/04 10:52:55;;;;;;;12.00;6.75;;;;;;;-145.63;100.00;61273.97;5102414;28;20036;-70
2024/01/04 10:55:21;;;;;;;16.13;8.90;;;;;;;-145.63;100.00;61273.97;5083621;28;20313;-71
2024/01/04 10:57:48;;;;;;;11.25;6.38;;;;;;;-145.63;100.00;61273.97;5068079;28;20067;-69
2024/01/04 11:00:16;;;;;;;14.60;7.40;;;;;;;-145.63;100.00;61273.97;5071580;28;20031;-68